Meteo Giornale » Osservazioni meteo Messico » Mexico City-Licenci

ore: 22:45 - Osservazioni Meteo Mexico City-Licenci
Lat. 19° 26' N Lon. 99° 6' W Alt. 2238 metri s.l.m.

molto_nuvoloso America/Mexico_City

19 °C

Molto Nuvoloso

Temp. 24 Ore

11 °C

26 °C

Ovest

14.8 Km/h

Dew point 2 °C

Umidità 32 %

Visibilità  19 Km

Il sole sorge alle ore 06:59

Il sole tramonta alle ore 18:40

Data e Ora Cielo e Fenomeni T °C DP °C Um. % Pres. hPa Vis. km Vento km/h
Oggi h: 22:45 molto_nuvoloso Molto Nuvoloso 19 2 32 1026 19 O 14.8
Oggi h: 21:45 molto_nuvoloso Molto Nuvoloso 19 3 34 1026 19 N 0
Oggi h: 20:45 molto_nuvoloso Molto Nuvoloso 20 3 32 1026 19 S 9.3
Oggi h: 19:45 coperto Coperto 21 2 28 1025 10 SO 9.3
Oggi h: 19:42 coperto Coperto 21 2 28 1025 10 SO 9.3
Oggi h: 18:45 coperto Coperto 23 2 25 1024 10 O/SO 18.5
Oggi h: 17:50 coperto Coperto 24 1 22 1023 10 O/SO 20.3
Oggi h: 16:45 coperto Coperto 25 0 19 1022 10 O 27.8
Oggi h: 15:45 coperto Coperto 26 -2 15 1022 19 S 9.3
Oggi h: 14:45 coperto Coperto 26 -4 13 1023 19 O 9.3
Oggi h: 13:47 molto_nuvoloso Molto Nuvoloso 26 -3 14 1024 19 O/SO 9.3
Oggi h: 12:51 molto_nuvoloso Molto Nuvoloso 25 -2 16 1025 19 S/SO 13
Oggi h: 11:51 molto_nuvoloso Molto Nuvoloso 24 -2 17 1025 19 SO 16.7
Oggi h: 11:50 molto_nuvoloso Molto Nuvoloso 24 -1 19 1026 19 SO 16.7
Oggi h: 10:52 nuvoloso Nuvoloso 22 -4 17 1026 19 N 3.7
Oggi h: 10:50 nuvoloso Nuvoloso 22 -4 17 1026 19 N 3.7
Oggi h: 10:04 molto_nuvoloso Molto Nuvoloso 20 -3 20 1027 10 N 0
Oggi h: 09:45 molto_nuvoloso Molto Nuvoloso 18 -2 25 1027 10 N 3.7
Oggi h: 09:22 molto_nuvoloso Molto Nuvoloso 17 -1 29 1027 10 N 3.7
Oggi h: 08:52 nuvoloso Nuvoloso 15 -1 33 1026 10 E 9.3
Oggi h: 07:45 poco_nuvoloso Poco Nuvoloso 14 -3 30 1026 19 N 3.7
Oggi h: 07:44 poco_nuvoloso Poco Nuvoloso 14 -2 32 1026 19 N 3.7
Oggi h: 06:47 sereno Sereno 12 -3 34 1025 19 N 3.7
Oggi h: 05:46 sereno Sereno 13 -2 35 1025 10 N 5.5
Oggi h: 04:42 poco_nuvoloso Poco Nuvoloso 12 -3 34 1024 10 N 3.7
Oggi h: 03:55 poco_nuvoloso Poco Nuvoloso 11 1 50 1024 10 E/NE 7.4
Oggi h: 03:44 poco_nuvoloso Poco Nuvoloso 13 0 40 1024 10 N 5.5
Oggi h: 02:45 nuvoloso Nuvoloso 15 -1 33 1024 10 N 3.7
Oggi h: 01:42 molto_nuvoloso Molto Nuvoloso 16 -2 29 1024 10 N 3.7
Oggi h: 00:42 nuvoloso Nuvoloso 16 -2 29 1024 10 N 5.5
Ieri h: 23:46 nuvoloso Nuvoloso 17 -2 27 1025 10 SE 7.4
Ieri h: 22:45 nuvoloso Nuvoloso 18 -2 25 1025 10 O 11.1